createdAt,value
2023-03-28T00:00:31.415Z,65.25
2023-03-28T00:02:58.153Z,65.04
2023-03-28T00:05:24.733Z,65.08
2023-03-28T00:07:51.597Z,64.81
2023-03-28T00:10:18.273Z,64.90
2023-03-28T00:12:44.787Z,65.14
2023-03-28T00:15:11.645Z,65.45
2023-03-28T00:17:38.143Z,64.71
2023-03-28T00:20:10.463Z,64.59
2023-03-28T00:22:38.178Z,64.74
2023-03-28T00:25:06.747Z,64.95
2023-03-28T00:27:33.633Z,64.72
2023-03-28T00:30:00.510Z,64.99
2023-03-28T00:32:26.977Z,65.05
2023-03-28T00:34:53.422Z,64.64
2023-03-28T00:37:21.128Z,64.92
2023-03-28T00:39:51.208Z,64.89
2023-03-28T00:42:18.313Z,65.02
2023-03-28T00:44:47.996Z,64.45
2023-03-28T00:47:28.262Z,64.76
2023-03-28T00:49:59.092Z,63.52
2023-03-28T00:52:25.757Z,64.21
2023-03-28T00:54:52.257Z,63.68
2023-03-28T00:57:18.851Z,63.87
2023-03-28T00:59:45.890Z,64.29
2023-03-28T01:02:12.418Z,64.51
2023-03-28T01:04:43.036Z,64.10
2023-03-28T01:07:09.494Z,64.70
2023-03-28T01:09:35.973Z,64.78
2023-03-28T01:12:02.458Z,65.27
2023-03-28T01:14:29.211Z,65.14
2023-03-28T01:16:57.771Z,65.99
2023-03-28T01:19:43.062Z,65.89
2023-03-28T01:22:21.580Z,66.10
2023-03-28T01:25:03.391Z,66.01
2023-03-28T01:27:53.365Z,65.86
2023-03-28T01:30:32.208Z,65.98
2023-03-28T01:33:04.775Z,65.87
2023-03-28T01:35:37.514Z,66.17
2023-03-28T01:38:06.924Z,66.04
2023-03-28T01:40:33.383Z,65.91
2023-03-28T01:43:06.011Z,66.56
2023-03-28T01:45:32.481Z,66.36
2023-03-28T01:48:06.817Z,66.77
2023-03-28T01:50:42.021Z,67.14
2023-03-28T01:53:20.620Z,66.79
2023-03-28T01:55:48.693Z,67.86
2023-03-28T01:58:35.638Z,67.36
2023-03-28T02:01:05.496Z,67.43
2023-03-28T02:03:32.315Z,67.79
2023-03-28T02:05:58.981Z,67.50
2023-03-28T02:08:26.589Z,68.09
2023-03-28T02:10:53.237Z,67.93
2023-03-28T02:13:21.297Z,68.10
2023-03-28T02:15:51.945Z,67.79
2023-03-28T02:18:20.590Z,68.14
2023-03-28T02:20:49.628Z,67.67
2023-03-28T02:23:17.868Z,67.74
2023-03-28T02:25:44.288Z,68.16
2023-03-28T02:28:10.760Z,67.81
2023-03-28T02:30:37.266Z,67.91
2023-03-28T02:33:04.611Z,67.96
2023-03-28T02:35:46.032Z,68.12
2023-03-28T02:38:18.099Z,67.98
2023-03-28T02:40:47.654Z,68.07
2023-03-28T02:43:14.271Z,67.82
2023-03-28T02:45:40.823Z,68.67
2023-03-28T02:48:30.182Z,68.24
2023-03-28T02:51:09.819Z,68.87
2023-03-28T02:53:54.614Z,68.71
2023-03-28T02:56:22.412Z,68.73
2023-03-28T02:58:50.790Z,69.67
2023-03-28T03:01:18.075Z,69.73
2023-03-28T03:03:44.615Z,69.57
2023-03-28T03:06:12.637Z,69.40
2023-03-28T03:08:39.173Z,69.02
2023-03-28T03:11:05.916Z,70.23
2023-03-28T03:13:32.366Z,70.03
2023-03-28T03:15:58.963Z,69.99
2023-03-28T03:18:26.468Z,70.44
2023-03-28T03:20:53.168Z,69.93
2023-03-28T03:23:19.616Z,70.18
2023-03-28T03:25:46.088Z,70.28
2023-03-28T03:28:13.238Z,70.09
2023-03-28T03:30:39.694Z,70.58
2023-03-28T03:33:06.264Z,70.52
2023-03-28T03:35:35.848Z,70.62
2023-03-28T03:38:02.811Z,70.95
2023-03-28T03:40:29.280Z,70.58
2023-03-28T03:42:55.772Z,70.82
2023-03-28T03:45:22.688Z,70.70
2023-03-28T03:47:49.250Z,70.83
2023-03-28T03:50:15.936Z,70.80
2023-03-28T03:52:42.461Z,70.74
2023-03-28T03:55:09.202Z,71.03
2023-03-28T03:57:35.963Z,71.27
2023-03-28T04:00:09.059Z,70.86
2023-03-28T04:02:35.597Z,71.35
2023-03-28T04:05:02.187Z,70.82
2023-03-28T04:07:28.712Z,71.02
2023-03-28T04:09:55.298Z,70.77
2023-03-28T04:12:21.875Z,70.95
2023-03-28T04:14:48.315Z,70.74
2023-03-28T04:17:16.195Z,70.67
2023-03-28T04:19:43.866Z,70.45
2023-03-28T04:22:12.798Z,70.56
2023-03-28T04:24:41.784Z,70.64
2023-03-28T04:27:09.723Z,70.60
2023-03-28T04:29:37.080Z,70.25
2023-03-28T04:32:05.653Z,70.52
2023-03-28T04:34:33.960Z,70.35
2023-03-28T04:37:01.925Z,70.86
2023-03-28T04:39:32.745Z,70.59
2023-03-28T04:42:02.323Z,70.16
2023-03-28T04:44:29.525Z,70.73
2023-03-28T04:46:56.567Z,70.54
2023-03-28T04:49:23.605Z,70.91
2023-03-28T04:51:50.837Z,70.78
2023-03-28T04:54:17.732Z,70.51
2023-03-28T04:56:50.456Z,71.10
2023-03-28T04:59:17.396Z,71.00
2023-03-28T05:01:49.347Z,70.87
2023-03-28T05:04:19.341Z,71.38
2023-03-28T05:06:46.378Z,71.44
2023-03-28T05:09:12.881Z,71.36
2023-03-28T05:11:39.627Z,71.44
2023-03-28T05:14:06.406Z,70.67
2023-03-28T05:16:32.949Z,70.61
2023-03-28T05:18:59.498Z,70.73
2023-03-28T05:21:25.975Z,70.36
2023-03-28T05:23:52.649Z,70.83
2023-03-28T05:26:19.308Z,70.22
2023-03-28T05:28:46.359Z,69.63
2023-03-28T05:31:12.978Z,69.27
2023-03-28T05:33:39.505Z,69.99
2023-03-28T05:36:06.132Z,69.82
2023-03-28T05:38:33.698Z,70.85
2023-03-28T05:41:00.424Z,73.15
2023-03-28T05:43:27.342Z,74.30
2023-03-28T05:45:53.920Z,74.39
2023-03-28T05:48:20.362Z,74.81
2023-03-28T05:50:47.932Z,74.75
2023-03-28T05:53:14.420Z,75.21
2023-03-28T05:55:41.269Z,75.91
2023-03-28T05:58:07.866Z,75.19
2023-03-28T06:00:34.626Z,75.51
2023-03-28T06:03:01.295Z,75.17
2023-03-28T06:05:27.813Z,75.83
2023-03-28T06:07:54.273Z,75.53
2023-03-28T06:10:21.156Z,75.25
2023-03-28T06:12:47.584Z,75.15
2023-03-28T06:15:14.065Z,75.15
2023-03-28T06:17:40.615Z,74.21
2023-03-28T06:20:09.993Z,73.30
2023-03-28T06:22:38.709Z,73.17
2023-03-28T06:25:05.819Z,72.51
2023-03-28T06:27:32.533Z,71.10
2023-03-28T06:30:00.129Z,70.65
2023-03-28T06:32:27.133Z,70.44
2023-03-28T06:34:53.597Z,66.41
2023-03-28T06:37:20.186Z,64.66
2023-03-28T06:39:46.770Z,60.79
2023-03-28T06:42:13.229Z,59.48
2023-03-28T06:44:39.643Z,58.93
2023-03-28T06:47:06.121Z,57.79
2023-03-28T06:49:32.559Z,59.57
2023-03-28T06:51:59.020Z,58.21
2023-03-28T06:54:25.519Z,59.18
2023-03-28T06:56:52.082Z,58.40
2023-03-28T06:59:18.593Z,57.52
2023-03-28T07:01:45.089Z,58.58
2023-03-28T07:04:11.720Z,58.86
2023-03-28T07:06:38.563Z,58.63
2023-03-28T07:09:06.343Z,58.31
2023-03-28T07:11:33.537Z,58.77
2023-03-28T07:13:59.997Z,58.38
2023-03-28T07:16:26.477Z,58.82
2023-03-28T07:18:52.958Z,57.29
2023-03-28T07:21:19.668Z,57.03
2023-03-28T07:23:46.376Z,56.44
2023-03-28T07:26:13.325Z,55.34
2023-03-28T07:28:39.839Z,56.85
2023-03-28T07:31:06.457Z,55.71
2023-03-28T07:33:37.277Z,55.94
2023-03-28T07:36:14.989Z,53.79
2023-03-28T07:38:42.075Z,55.58
2023-03-28T07:41:08.760Z,56.43
2023-03-28T07:43:35.543Z,56.78
2023-03-28T07:46:02.665Z,56.78
2023-03-28T07:48:29.673Z,56.76
2023-03-28T07:50:56.164Z,55.13
2023-03-28T07:53:22.615Z,55.61
2023-03-28T07:55:55.141Z,54.91
2023-03-28T07:58:22.655Z,51.06
2023-03-28T08:00:49.303Z,49.08
2023-03-28T08:03:16.760Z,48.66
2023-03-28T08:05:51.547Z,45.21
2023-03-28T08:08:19.241Z,46.73
2023-03-28T08:10:46.171Z,47.99
2023-03-28T08:13:12.801Z,48.87
2023-03-28T08:15:39.435Z,48.16
2023-03-28T08:18:06.064Z,47.69
2023-03-28T08:20:32.842Z,48.32
2023-03-28T08:22:59.353Z,45.70
2023-03-28T08:25:25.838Z,45.12
2023-03-28T08:27:52.328Z,44.42
2023-03-28T08:30:18.782Z,46.29
2023-03-28T08:32:48.313Z,46.83
2023-03-28T08:35:15.759Z,47.28
2023-03-28T08:37:42.217Z,45.74
2023-03-28T08:40:14.041Z,45.73
2023-03-28T08:42:55.707Z,45.47
2023-03-28T08:45:24.882Z,46.49
2023-03-28T08:47:54.362Z,47.39
2023-03-28T08:50:25.038Z,46.05
2023-03-28T08:52:51.519Z,46.23
2023-03-28T08:55:38.536Z,44.90
2023-03-28T08:58:04.959Z,45.18
2023-03-28T09:00:32.278Z,47.15
2023-03-28T09:02:58.895Z,45.36
2023-03-28T09:05:28.993Z,44.28
2023-03-28T09:08:00.400Z,45.05
2023-03-28T09:10:29.661Z,45.27
2023-03-28T09:12:59.243Z,46.26
2023-03-28T09:15:28.769Z,46.50
2023-03-28T09:18:34.069Z,46.01
2023-03-28T09:21:04.057Z,45.91
2023-03-28T09:23:39.340Z,44.25
2023-03-28T09:26:17.416Z,45.38
2023-03-28T09:28:50.130Z,45.58
2023-03-28T09:31:17.381Z,46.03
2023-03-28T09:33:44.054Z,46.35
2023-03-28T09:36:15.373Z,48.02
2023-03-28T09:38:44.585Z,48.00
2023-03-28T09:41:20.108Z,45.47
2023-03-28T09:43:47.904Z,46.86
2023-03-28T09:46:32.728Z,46.61
2023-03-28T09:48:59.415Z,46.76
2023-03-28T09:51:25.943Z,47.05
2023-03-28T09:53:52.621Z,46.84
2023-03-28T09:56:19.100Z,45.75
2023-03-28T09:58:54.724Z,47.17
2023-03-28T10:01:25.579Z,48.36
2023-03-28T10:03:53.168Z,46.18
2023-03-28T10:06:43.075Z,49.47
2023-03-28T10:09:15.709Z,46.66
2023-03-28T10:11:48.915Z,47.36
2023-03-28T10:14:34.265Z,46.49
2023-03-28T10:17:13.906Z,44.39
2023-03-28T10:19:41.663Z,45.18
2023-03-28T10:22:12.718Z,46.90
2023-03-28T10:24:39.867Z,43.68
2023-03-28T10:27:07.426Z,43.62
2023-03-28T10:29:34.165Z,40.91
2023-03-28T10:32:00.778Z,39.59
2023-03-28T10:34:31.733Z,42.68
2023-03-28T10:36:58.204Z,44.14
2023-03-28T10:39:25.905Z,43.70
2023-03-28T10:41:52.982Z,42.09
2023-03-28T10:44:22.199Z,41.79
2023-03-28T10:46:48.759Z,43.83
2023-03-28T10:49:15.674Z,41.79
2023-03-28T10:51:42.149Z,42.19
2023-03-28T10:54:27.311Z,42.22
2023-03-28T10:56:57.662Z,44.07
2023-03-28T10:59:41.283Z,41.54
2023-03-28T11:02:34.213Z,40.53
2023-03-28T11:05:12.494Z,42.94
2023-03-28T11:07:44.416Z,40.96
2023-03-28T11:10:10.889Z,41.17
2023-03-28T11:12:54.285Z,43.55
2023-03-28T11:15:30.045Z,42.71
2023-03-28T11:17:59.760Z,44.38
2023-03-28T11:20:34.585Z,44.00
2023-03-28T11:23:10.165Z,40.24
2023-03-28T11:25:36.638Z,40.84
2023-03-28T11:28:13.856Z,41.97
2023-03-28T11:30:40.363Z,40.33
2023-03-28T11:33:09.978Z,39.14
2023-03-28T11:35:40.956Z,41.33
2023-03-28T11:38:15.034Z,38.84
2023-03-28T11:40:58.364Z,38.03
2023-03-28T11:43:37.156Z,39.71
2023-03-28T11:46:06.021Z,43.14
2023-03-28T11:48:47.119Z,43.37
2023-03-28T11:51:23.733Z,42.97
2023-03-28T11:53:55.110Z,41.29
2023-03-28T11:56:40.511Z,42.04
2023-03-28T11:59:09.058Z,40.43
2023-03-28T12:01:37.422Z,42.94
2023-03-28T12:04:10.261Z,42.62
2023-03-28T12:07:02.194Z,42.03
2023-03-28T12:09:36.625Z,44.45
2023-03-28T12:12:10.442Z,45.64
2023-03-28T12:15:06.357Z,47.43
2023-03-28T12:17:53.093Z,47.42
2023-03-28T12:20:38.839Z,46.75
2023-03-28T12:23:12.624Z,46.97
2023-03-28T12:25:46.619Z,47.44
2023-03-28T12:28:24.543Z,46.38
2023-03-28T12:30:59.093Z,45.00
2023-03-28T12:33:49.008Z,46.06
2023-03-28T12:36:20.757Z,47.64
2023-03-28T12:39:05.975Z,52.02
2023-03-28T12:41:34.747Z,53.68
2023-03-28T12:44:03.701Z,54.51
2023-03-28T12:46:33.283Z,54.88
2023-03-28T12:49:01.174Z,55.85
2023-03-28T12:51:37.456Z,57.41
2023-03-28T12:54:08.404Z,58.91
2023-03-28T12:56:35.143Z,60.07
2023-03-28T12:59:01.859Z,63.02
2023-03-28T13:01:28.362Z,60.80
2023-03-28T13:04:24.356Z,60.87
2023-03-28T13:07:04.147Z,60.78
2023-03-28T13:09:35.664Z,67.06
2023-03-28T13:12:02.081Z,68.20
2023-03-28T13:14:34.553Z,65.75
2023-03-28T13:17:02.139Z,63.70
2023-03-28T13:19:47.640Z,61.79
2023-03-28T13:22:32.364Z,60.42
2023-03-28T13:25:21.266Z,59.70
2023-03-28T13:27:51.241Z,58.28
2023-03-28T13:30:18.431Z,55.87
2023-03-28T13:36:14.337Z,57.99
2023-03-28T13:38:55.747Z,55.88
2023-03-28T13:41:40.929Z,56.58
2023-03-28T13:44:11.724Z,55.84
2023-03-28T13:47:07.790Z,56.00
2023-03-28T13:49:51.514Z,54.48
2023-03-28T13:52:21.998Z,52.14
2023-03-28T13:54:54.578Z,51.93
2023-03-28T13:57:22.233Z,52.02
2023-03-28T13:59:51.776Z,51.06
2023-03-28T14:02:41.746Z,49.71
2023-03-28T14:05:13.235Z,50.37
2023-03-28T14:07:39.722Z,48.52
2023-03-28T14:10:22.459Z,48.67
2023-03-28T14:12:50.720Z,48.11
2023-03-28T14:15:17.913Z,50.80
2023-03-28T14:17:44.440Z,49.48
2023-03-28T14:20:15.159Z,50.51
2023-03-28T14:22:56.980Z,52.41
2023-03-28T14:25:26.701Z,52.08
2023-03-28T14:27:54.009Z,51.41
2023-03-28T14:30:27.616Z,50.34
2023-03-28T14:33:14.664Z,50.84
2023-03-28T14:35:46.183Z,50.32
2023-03-28T14:38:16.903Z,49.56
2023-03-28T14:40:44.111Z,47.68
2023-03-28T14:43:12.195Z,44.79
2023-03-28T14:45:47.983Z,45.51
2023-03-28T14:48:16.486Z,42.06
2023-03-28T14:50:42.912Z,43.52
2023-03-28T14:53:13.010Z,44.70
2023-03-28T14:55:41.864Z,44.49
2023-03-28T14:58:09.102Z,44.76
2023-03-28T15:00:40.613Z,45.98
2023-03-28T15:03:12.643Z,46.88
2023-03-28T15:05:39.468Z,45.12
2023-03-28T15:08:06.317Z,44.52
2023-03-28T15:10:32.866Z,45.85
2023-03-28T15:12:59.306Z,46.03
2023-03-28T15:15:29.873Z,46.95
2023-03-28T15:17:57.405Z,46.81
2023-03-28T15:20:25.645Z,46.93
2023-03-28T15:22:54.595Z,46.93
2023-03-28T15:25:21.890Z,46.95
2023-03-28T15:27:50.138Z,46.28
2023-03-28T15:30:17.359Z,46.10
2023-03-28T15:32:44.035Z,47.14
2023-03-28T15:35:27.764Z,48.31
2023-03-28T15:37:59.624Z,47.66
2023-03-28T15:40:28.632Z,49.09
2023-03-28T15:42:55.695Z,48.51
2023-03-28T15:45:23.564Z,48.83
2023-03-28T15:47:50.702Z,50.21
2023-03-28T15:50:21.474Z,50.15
2023-03-28T15:52:47.919Z,49.58
2023-03-28T15:55:21.317Z,48.25
2023-03-28T15:57:47.783Z,49.27
2023-03-28T16:00:44.156Z,48.33
2023-03-28T16:03:34.733Z,48.24
2023-03-28T16:06:10.080Z,50.04
2023-03-28T16:08:44.644Z,50.99
2023-03-28T16:11:18.701Z,50.14
2023-03-28T16:13:45.236Z,51.61
2023-03-28T16:16:17.496Z,51.41
2023-03-28T16:18:45.144Z,51.23
2023-03-28T16:21:11.629Z,51.85
2023-03-28T16:23:38.108Z,51.54
2023-03-28T16:26:05.074Z,50.98
2023-03-28T16:28:31.620Z,51.22
2023-03-28T16:30:58.092Z,50.17
2023-03-28T16:33:24.787Z,49.42
2023-03-28T16:35:52.081Z,49.71
2023-03-28T16:38:18.587Z,49.66
2023-03-28T16:40:46.191Z,50.51
2023-03-28T16:43:15.391Z,50.90
2023-03-28T16:45:42.478Z,51.38
2023-03-28T16:48:08.980Z,51.11
2023-03-28T16:50:35.508Z,50.78
2023-03-28T16:53:02.403Z,51.16
2023-03-28T16:55:28.890Z,51.49
2023-03-28T16:57:55.324Z,51.32
2023-03-28T17:00:23.005Z,53.91
2023-03-28T17:02:49.619Z,57.03
2023-03-28T17:05:16.782Z,57.57
2023-03-28T17:08:15.434Z,58.31
2023-03-28T17:10:43.352Z,57.71
2023-03-28T17:13:10.001Z,58.38
2023-03-28T17:15:36.679Z,58.91
2023-03-28T17:18:05.904Z,59.21
2023-03-28T17:20:32.542Z,58.51
2023-03-28T17:22:59.059Z,58.69
2023-03-28T17:25:25.765Z,59.67
2023-03-28T17:31:26.518Z,59.52
2023-03-28T17:33:53.231Z,59.19
2023-03-28T17:36:22.022Z,60.19
2023-03-28T17:38:49.629Z,59.83
2023-03-28T17:41:16.879Z,60.29
2023-03-28T17:43:43.838Z,60.38
2023-03-28T17:46:10.549Z,60.42
2023-03-28T17:48:40.241Z,60.11
2023-03-28T17:51:07.582Z,60.70
2023-03-28T17:53:34.044Z,60.09
2023-03-28T17:56:01.365Z,60.01
2023-03-28T17:58:28.905Z,60.53
2023-03-28T18:00:55.448Z,60.12
2023-03-28T18:03:22.650Z,60.67
2023-03-28T18:05:50.055Z,60.21
2023-03-28T18:08:16.648Z,60.49
2023-03-28T18:10:44.700Z,61.88
2023-03-28T18:13:14.932Z,60.85
2023-03-28T18:15:42.247Z,60.72
2023-03-28T18:18:09.278Z,61.45
2023-03-28T18:20:36.362Z,61.42
2023-03-28T18:23:02.785Z,61.15
2023-03-28T18:25:32.356Z,61.42
2023-03-28T18:27:59.650Z,61.29
2023-03-28T18:30:27.260Z,61.28
2023-03-28T18:32:53.855Z,61.35
2023-03-28T18:35:20.384Z,60.77
2023-03-28T18:37:46.881Z,61.15
2023-03-28T18:40:14.553Z,60.86
2023-03-28T18:42:41.516Z,60.65
2023-03-28T18:45:08.300Z,61.54
2023-03-28T18:47:38.535Z,61.42
2023-03-28T18:50:05.543Z,60.80
2023-03-28T18:52:32.152Z,60.99
2023-03-28T18:54:58.951Z,60.80
2023-03-28T18:57:25.440Z,60.28
2023-03-28T18:59:55.994Z,60.69
2023-03-28T19:02:23.027Z,61.24
2023-03-28T19:04:49.723Z,60.70
2023-03-28T19:07:16.522Z,60.73
2023-03-28T19:09:43.874Z,60.60
2023-03-28T19:12:11.588Z,60.60
2023-03-28T19:14:38.021Z,60.71
2023-03-28T19:17:04.733Z,60.73
2023-03-28T19:19:37.315Z,60.28
2023-03-28T19:22:04.724Z,60.52
2023-03-28T19:24:31.207Z,60.77
2023-03-28T19:26:59.332Z,60.56
2023-03-28T19:29:26.467Z,60.70
2023-03-28T19:31:53.044Z,60.80
2023-03-28T19:34:19.955Z,60.43
2023-03-28T19:36:47.458Z,60.45
2023-03-28T19:39:14.042Z,60.78
2023-03-28T19:41:40.560Z,60.62
2023-03-28T19:44:07.129Z,60.60
2023-03-28T19:46:36.361Z,60.45
2023-03-28T19:49:06.312Z,60.63
2023-03-28T19:51:33.148Z,60.82
2023-03-28T19:53:59.782Z,60.49
2023-03-28T19:56:27.271Z,60.22
2023-03-28T19:58:53.756Z,60.06
2023-03-28T20:01:20.554Z,60.06
2023-03-28T20:03:49.531Z,60.55
2023-03-28T20:06:17.075Z,60.39
2023-03-28T20:08:43.631Z,60.52
2023-03-28T20:11:11.665Z,59.85
2023-03-28T20:13:38.481Z,60.14
2023-03-28T20:16:05.743Z,60.12
2023-03-28T20:18:32.676Z,59.99
2023-03-28T20:21:03.510Z,59.94
2023-03-28T20:23:30.552Z,60.13
2023-03-28T20:25:59.081Z,60.48
2023-03-28T20:28:25.606Z,60.76
2023-03-28T20:30:52.654Z,60.52
2023-03-28T20:33:20.625Z,60.48
2023-03-28T20:35:53.845Z,60.48
2023-03-28T20:38:21.176Z,60.24
2023-03-28T20:40:47.825Z,60.29
2023-03-28T20:43:19.965Z,60.23
2023-03-28T20:45:53.671Z,60.83
2023-03-28T20:48:35.165Z,60.03
2023-03-28T20:51:05.885Z,60.22
2023-03-28T20:53:33.220Z,60.27
2023-03-28T20:56:01.873Z,60.28
2023-03-28T20:58:29.212Z,60.84
2023-03-28T21:00:57.387Z,60.52
2023-03-28T21:03:23.972Z,60.72
2023-03-28T21:05:50.724Z,60.97
2023-03-28T21:08:19.733Z,60.91
2023-03-28T21:10:53.531Z,60.82
2023-03-28T21:13:21.789Z,60.97
2023-03-28T21:15:52.627Z,60.76
2023-03-28T21:18:19.146Z,61.38
2023-03-28T21:20:45.904Z,62.14
2023-03-28T21:23:13.280Z,62.04
2023-03-28T21:25:43.380Z,61.51
2023-03-28T21:28:11.074Z,61.51
2023-03-28T21:30:37.643Z,62.20
2023-03-28T21:33:04.170Z,62.14
2023-03-28T21:35:30.741Z,62.30
2023-03-28T21:37:57.215Z,61.91
2023-03-28T21:40:23.785Z,61.71
2023-03-28T21:42:50.436Z,61.82
2023-03-28T21:45:16.987Z,62.15
2023-03-28T21:47:44.903Z,61.80
2023-03-28T21:50:13.723Z,61.44
2023-03-28T21:52:41.384Z,61.65
2023-03-28T21:55:09.314Z,61.40
2023-03-28T21:57:36.802Z,61.65
2023-03-28T22:00:14.859Z,61.54
2023-03-28T22:02:42.057Z,61.54
2023-03-28T22:05:18.551Z,61.40
2023-03-28T22:07:53.401Z,61.27
2023-03-28T22:10:20.085Z,61.43
2023-03-28T22:12:46.809Z,61.21
2023-03-28T22:15:16.422Z,61.55
2023-03-28T22:17:43.028Z,61.59
2023-03-28T22:20:11.711Z,61.33
2023-03-28T22:22:44.940Z,61.39
2023-03-28T22:25:12.628Z,61.27
2023-03-28T22:27:39.370Z,61.61
2023-03-28T22:30:06.195Z,61.04
2023-03-28T22:32:32.730Z,59.94
2023-03-28T22:34:59.410Z,60.25
2023-03-28T22:37:25.999Z,59.91
2023-03-28T22:39:52.427Z,60.40
2023-03-28T22:42:18.857Z,60.25
2023-03-28T22:44:46.009Z,60.41
2023-03-28T22:47:12.674Z,60.60
2023-03-28T22:49:39.797Z,60.89
2023-03-28T22:52:06.436Z,60.74
2023-03-28T22:54:33.308Z,60.85
2023-03-28T22:56:59.987Z,60.96
2023-03-28T22:59:27.268Z,61.01
2023-03-28T23:01:55.357Z,61.42
2023-03-28T23:04:23.562Z,60.98
2023-03-28T23:06:50.497Z,61.21
2023-03-28T23:09:17.248Z,61.45
2023-03-28T23:11:43.922Z,61.55
2023-03-28T23:14:10.553Z,61.49
2023-03-28T23:16:38.506Z,61.69
2023-03-28T23:19:06.341Z,61.84
2023-03-28T23:21:33.491Z,61.80
2023-03-28T23:24:00.036Z,61.52
2023-03-28T23:26:26.483Z,61.66
2023-03-28T23:28:52.946Z,61.76
2023-03-28T23:31:19.896Z,62.41
2023-03-28T23:33:46.581Z,62.19
2023-03-28T23:36:20.961Z,62.55
2023-03-28T23:38:51.102Z,62.47
2023-03-28T23:41:17.754Z,62.63
2023-03-28T23:43:44.511Z,62.41
2023-03-28T23:46:11.133Z,62.48
2023-03-28T23:48:37.798Z,62.56
2023-03-28T23:51:04.572Z,62.79
2023-03-28T23:53:31.123Z,63.18
2023-03-28T23:55:57.561Z,62.83
2023-03-28T23:58:24.059Z,63.04
